Time;durP1;ratioP1;P1;durP2;ratioP2;P2;SDS_P1;SDS_P2;PMS_P1;PMS_P2;Temp;Humidity;BMP_temperature;BMP_pressure;BME280_temperature;BME280_humidity;BME280_pressure;Samples;Min_cycle;Max_cycle;Signal;HPM_P1;HPM_P2
2023/05/23 00:02:07;;;;;;;6.72;5.80;;;;;;;13.97;77.21;101497.22;4836444;29;20053;-83
2023/05/23 00:04:32;;;;;;;7.57;6.03;;;;;;;13.98;77.16;101493.47;4834709;29;20129;-84
2023/05/23 00:06:58;;;;;;;7.45;6.18;;;;;;;14.03;77.20;101485.59;4838172;29;20030;-84
2023/05/23 00:09:23;;;;;;;7.00;5.95;;;;;;;14.09;77.28;101492.03;4838064;29;20490;-84
2023/05/23 00:12:00;;;;;;;8.80;6.47;;;;;;;14.07;77.41;101494.97;4820381;29;20558;-84
2023/05/23 00:14:26;;;;;;;9.85;6.55;;;;;;;14.10;77.03;101499.13;4837559;29;20521;-84
2023/05/23 00:17:00;;;;;;;8.88;6.15;;;;;;;14.08;77.37;101499.34;4836454;29;20034;-84
2023/05/23 00:19:35;;;;;;;9.10;6.57;;;;;;;14.01;77.22;101495.78;4837908;29;20103;-84
2023/05/23 00:22:11;;;;;;;10.82;6.50;;;;;;;14.03;77.23;101493.72;4838029;29;20386;-83
2023/05/23 00:24:36;;;;;;;9.80;6.35;;;;;;;14.04;77.47;101494.53;4837083;29;20111;-84
2023/05/23 00:27:02;;;;;;;9.02;6.88;;;;;;;14.04;77.37;101486.41;4836797;29;20041;-84
2023/05/23 00:29:43;;;;;;;11.65;7.63;;;;;;;14.01;77.56;101493.06;4837829;29;20086;-84
2023/05/23 00:32:17;;;;;;;10.32;6.78;;;;;;;14.00;77.79;101494.09;4830570;29;20038;-83
2023/05/23 00:34:44;;;;;;;8.32;6.68;;;;;;;14.03;77.54;101498.31;4836316;29;20094;-84
2023/05/23 00:37:10;;;;;;;9.25;6.70;;;;;;;14.01;77.73;101495.78;4834153;29;20045;-83
2023/05/23 00:39:36;;;;;;;9.50;7.25;;;;;;;14.03;78.01;101501.81;4837354;29;20131;-83
2023/05/23 00:42:03;;;;;;;8.85;7.35;;;;;;;14.00;77.87;101488.69;4836778;29;20125;-84
2023/05/23 00:44:44;;;;;;;10.23;7.38;;;;;;;13.97;78.11;101488.28;4838950;29;20021;-83
2023/05/23 00:47:15;;;;;;;9.60;6.78;;;;;;;13.98;78.33;101493.47;4836459;29;20042;-82
2023/05/23 00:49:41;;;;;;;11.30;7.18;;;;;;;14.01;78.17;101501.19;4837481;29;20049;-83
2023/05/23 00:52:22;;;;;;;10.40;7.00;;;;;;;14.00;78.21;101483.28;4837936;29;20061;-83
2023/05/23 00:55:02;;;;;;;10.07;6.80;;;;;;;13.99;78.04;101488.91;4837184;29;20486;-83
2023/05/23 00:57:39;;;;;;;10.18;7.28;;;;;;;13.97;78.28;101483.69;4832186;29;20035;-83
2023/05/23 01:00:09;;;;;;;11.48;7.70;;;;;;;13.97;78.36;101499.94;4810412;29;20038;-83
2023/05/23 01:02:44;;;;;;;9.07;7.88;;;;;;;13.90;78.95;101499.91;4841192;29;20034;-83
2023/05/23 01:05:25;;;;;;;11.63;7.90;;;;;;;13.95;78.90;101502.00;4841326;29;20030;-83
2023/05/23 01:07:53;;;;;;;12.00;8.32;;;;;;;13.96;78.72;101506.38;4840535;29;20029;-82
2023/05/23 01:10:21;;;;;;;14.27;8.82;;;;;;;13.91;78.85;101500.75;4839869;29;20026;-82
2023/05/23 01:13:05;;;;;;;11.73;8.55;;;;;;;13.95;78.80;101502.00;4824457;29;20086;-82
2023/05/23 01:15:52;;;;;;;13.80;8.27;;;;;;;13.93;79.06;101504.09;4836529;29;20034;-82
2023/05/23 01:18:45;;;;;;;12.35;8.18;;;;;;;13.90;79.48;101504.50;4853076;29;20030;-82
2023/05/23 01:21:16;;;;;;;12.38;7.95;;;;;;;13.86;79.21;101508.66;4806117;29;20478;-83
2023/05/23 01:24:03;;;;;;;11.55;7.97;;;;;;;13.88;78.90;101520.09;4851188;29;20048;-82
2023/05/23 01:27:07;;;;;;;14.25;8.18;;;;;;;13.83;79.01;101522.56;4842119;29;20053;-83
2023/05/23 01:29:37;;;;;;;14.35;7.55;;;;;;;13.79;78.45;101532.97;4799324;29;20504;-83
2023/05/23 01:32:05;;;;;;;14.32;7.20;;;;;;;13.76;78.47;101519.84;4823800;29;20033;-83
2023/05/23 01:34:30;;;;;;;9.98;6.70;;;;;;;13.76;78.30;101531.53;4808402;29;20041;-83
2023/05/23 01:36:58;;;;;;;9.82;6.57;;;;;;;13.74;78.01;101530.88;4823926;29;20034;-83
2023/05/23 01:39:24;;;;;;;10.55;6.47;;;;;;;13.64;78.16;101523.13;4840005;29;20089;-82
2023/05/23 01:41:50;;;;;;;11.88;6.85;;;;;;;13.60;78.14;101524.56;4839738;29;20503;-82
2023/05/23 01:44:15;;;;;;;12.30;6.20;;;;;;;13.49;78.35;101530.56;4839159;29;20049;-82
2023/05/23 01:46:40;;;;;;;9.65;6.00;;;;;;;13.42;78.53;101526.97;4822841;29;20633;-82
2023/05/23 01:49:07;;;;;;;10.80;6.03;;;;;;;13.40;79.06;101532.59;4821812;29;20449;-82
2023/05/23 01:51:33;;;;;;;9.07;5.72;;;;;;;13.38;79.00;101533.75;4840140;29;20490;-82
2023/05/23 01:53:58;;;;;;;8.98;5.40;;;;;;;13.34;78.96;101538.75;4838656;29;20120;-83
2023/05/23 01:56:23;;;;;;;7.85;5.25;;;;;;;13.36;78.83;101533.97;4822477;29;20030;-83
2023/05/23 01:58:49;;;;;;;8.45;5.45;;;;;;;13.32;79.24;101540.81;4836371;29;20066;-83
2023/05/23 02:01:14;;;;;;;7.93;5.03;;;;;;;13.31;78.85;101531.88;4834726;29;20032;-83
2023/05/23 02:03:42;;;;;;;6.70;4.78;;;;;;;13.32;78.95;101546.22;4822066;29;20048;-83
2023/05/23 02:06:08;;;;;;;7.57;5.05;;;;;;;13.27;79.36;101551.38;4838476;29;20094;-82
2023/05/23 02:08:34;;;;;;;8.35;5.07;;;;;;;13.25;79.94;101556.13;4822261;29;20034;-83
2023/05/23 02:10:59;;;;;;;9.13;5.38;;;;;;;13.22;79.85;101551.16;4839153;29;20411;-83
2023/05/23 02:13:25;;;;;;;7.47;5.82;;;;;;;13.20;80.11;101559.44;4839233;29;20038;-83
2023/05/23 02:15:50;;;;;;;9.55;6.20;;;;;;;13.22;80.57;101560.09;4840105;29;20037;-83
2023/05/23 02:18:19;;;;;;;10.45;6.45;;;;;;;13.17;80.93;101560.69;4837999;29;20041;-83
2023/05/23 02:20:47;;;;;;;10.68;6.47;;;;;;;13.20;81.52;101564.84;4838253;29;20505;-83
2023/05/23 02:23:12;;;;;;;8.73;6.25;;;;;;;13.22;81.07;101561.97;4839191;29;20038;-83
2023/05/23 02:25:38;;;;;;;11.10;7.28;;;;;;;13.19;80.88;101560.47;4838509;29;20038;-83
2023/05/23 02:28:03;;;;;;;11.98;7.45;;;;;;;13.08;81.24;101566.44;4838736;29;20125;-82
2023/05/23 02:30:28;;;;;;;10.73;6.65;;;;;;;13.11;81.50;101566.03;4838559;29;20029;-82
2023/05/23 02:32:54;;;;;;;12.30;7.22;;;;;;;13.17;81.13;101566.09;4834424;29;20060;-82
2023/05/23 02:35:22;;;;;;;14.60;7.78;;;;;;;13.12;81.38;101573.13;4838667;29;20030;-82
2023/05/23 02:37:48;;;;;;;11.60;7.50;;;;;;;13.13;81.46;101569.41;4837824;29;20096;-83
2023/05/23 02:40:13;;;;;;;11.48;7.30;;;;;;;13.11;82.00;101577.69;4836569;29;20439;-82
2023/05/23 02:45:29;;;;;;;12.40;7.50;;;;;;;13.07;81.79;101586.38;5132008;24;20057;-82
2023/05/23 02:47:55;;;;;;;13.07;7.85;;;;;;;13.07;81.60;101583.69;4837065;29;20106;-83
2023/05/23 02:50:20;;;;;;;11.45;7.63;;;;;;;13.06;81.89;101577.41;4837127;29;20758;-83
2023/05/23 02:53:05;;;;;;;16.45;8.68;;;;;;;13.09;81.52;101595.97;4838165;29;20065;-83
2023/05/23 02:55:39;;;;;;;13.73;8.38;;;;;;;13.10;81.19;101589.53;4831294;29;20027;-83
2023/05/23 02:58:04;;;;;;;15.15;8.45;;;;;;;13.10;81.14;101576.00;4826865;29;20039;-83
2023/05/23 03:00:31;;;;;;;13.35;8.32;;;;;;;13.09;81.21;101582.44;4833813;29;20087;-83
2023/05/23 03:03:02;;;;;;;14.80;8.18;;;;;;;13.02;81.32;101582.38;4828336;29;20034;-83
2023/05/23 03:05:28;;;;;;;17.10;8.65;;;;;;;13.00;81.45;101581.75;4817425;29;20132;-84
2023/05/23 03:08:02;;;;;;;13.43;8.30;;;;;;;12.97;81.59;101579.44;4833659;29;20506;-83
2023/05/23 03:10:37;;;;;;;13.45;8.73;;;;;;;12.91;82.05;101579.38;4829181;29;20054;-83
2023/05/23 03:13:02;;;;;;;12.57;8.23;;;;;;;12.89;82.15;101593.91;4829842;29;20034;-83
2023/05/23 03:15:28;;;;;;;16.88;8.38;;;;;;;12.93;82.10;101590.84;4833926;29;20034;-83
2023/05/23 03:18:05;;;;;;;16.60;8.60;;;;;;;12.87;82.21;101590.59;4831908;29;20634;-83
2023/05/23 03:20:31;;;;;;;13.55;8.55;;;;;;;12.91;81.96;101590.19;4834446;29;20029;-83
2023/05/23 03:23:02;;;;;;;13.00;7.82;;;;;;;12.84;82.08;101593.69;4837822;29;20034;-83
2023/05/23 03:25:29;;;;;;;17.38;9.15;;;;;;;12.85;82.28;101589.94;4825809;29;20030;-83
2023/05/23 03:27:58;;;;;;;16.20;8.73;;;;;;;12.86;82.58;101599.72;4837825;29;20046;-83
2023/05/23 03:30:42;;;;;;;13.15;8.20;;;;;;;12.82;82.98;101611.94;4835662;29;20037;-82
2023/05/23 03:33:08;;;;;;;13.50;8.27;;;;;;;12.83;82.88;101602.81;4839816;24;20038;-81
2023/05/23 03:35:45;;;;;;;16.02;9.10;;;;;;;12.73;83.03;101602.28;4832453;24;20517;-83
2023/05/23 03:38:20;;;;;;;13.52;7.93;;;;;;;12.72;83.23;101606.00;4836446;29;20033;-83
2023/05/23 03:40:46;;;;;;;13.73;8.68;;;;;;;12.71;83.14;101605.19;4836358;29;20068;-82
2023/05/23 03:43:11;;;;;;;12.68;8.23;;;;;;;12.77;83.04;101606.28;4838721;29;20470;-82
2023/05/23 03:45:36;;;;;;;16.73;8.68;;;;;;;12.67;83.14;101603.91;4834294;29;20038;-84
2023/05/23 03:48:03;;;;;;;11.30;7.95;;;;;;;12.70;83.26;101605.41;4833727;29;20440;-83
2023/05/23 03:50:29;;;;;;;14.93;9.13;;;;;;;12.69;83.24;101609.94;4837437;29;20042;-83
2023/05/23 03:52:54;;;;;;;13.18;8.23;;;;;;;12.71;83.28;101615.16;4831776;29;20083;-83
2023/05/23 03:55:21;;;;;;;14.77;8.90;;;;;;;12.63;83.29;101618.00;4820515;29;20049;-82
2023/05/23 03:58:01;;;;;;;12.88;8.55;;;;;;;12.59;83.44;101621.06;4829697;29;20034;-82
2023/05/23 04:00:30;;;;;;;14.55;9.57;;;;;;;12.62;83.11;101617.13;4832703;29;20038;-82
2023/05/23 04:02:56;;;;;;;13.75;8.68;;;;;;;12.61;83.27;101625.44;4824682;29;20045;-82
2023/05/23 04:05:21;;;;;;;18.08;8.50;;;;;;;12.62;83.27;101633.34;4836981;29;20038;-77
2023/05/23 04:07:59;;;;;;;15.63;8.30;;;;;;;12.68;83.37;101627.19;4832240;29;20036;-81
2023/05/23 04:10:34;;;;;;;13.15;8.45;;;;;;;12.68;83.01;101631.75;4835041;29;20049;-79
2023/05/23 04:12:59;;;;;;;11.98;8.40;;;;;;;12.66;82.73;101623.84;4837693;29;20086;-80
2023/05/23 04:15:26;;;;;;;15.63;8.13;;;;;;;12.67;82.51;101625.50;4830541;29;20034;-80
2023/05/23 04:18:08;;;;;;;12.43;8.15;;;;;;;12.70;82.13;101640.53;4829789;29;20030;-74
2023/05/23 04:21:01;;;;;;;14.52;8.52;;;;;;;12.68;82.21;101639.88;4830892;29;20034;-82
2023/05/23 04:23:36;;;;;;;14.73;8.27;;;;;;;12.61;83.08;101637.09;4831389;29;20030;-81
2023/05/23 04:26:02;;;;;;;14.02;7.85;;;;;;;12.66;82.79;101639.22;4838934;29;20050;-82
2023/05/23 04:28:27;;;;;;;15.27;8.77;;;;;;;12.68;82.34;101654.19;4825431;29;20687;-83
2023/05/23 04:30:55;;;;;;;13.02;8.18;;;;;;;12.70;81.97;101652.16;4853634;29;20030;-82
2023/05/23 04:33:20;;;;;;;11.45;7.85;;;;;;;12.73;81.99;101656.31;4843300;29;20034;-82
2023/05/23 04:36:11;;;;;;;13.80;7.68;;;;;;;12.75;81.36;101662.38;4842245;29;20136;-82
2023/05/23 04:38:37;;;;;;;12.10;7.82;;;;;;;12.74;81.47;101668.81;4834532;29;20038;-83
2023/05/23 04:41:04;;;;;;;13.95;7.95;;;;;;;12.78;81.28;101670.09;4839592;29;20386;-83
2023/05/23 04:43:32;;;;;;;11.90;7.43;;;;;;;12.75;81.77;101673.19;4841415;29;20390;-82
2023/05/23 04:45:58;;;;;;;14.45;8.45;;;;;;;12.79;81.09;101671.78;4834464;29;20589;-83
2023/05/23 04:48:25;;;;;;;13.90;8.13;;;;;;;12.83;81.21;101683.88;4836713;29;20038;-82
2023/05/23 04:50:51;;;;;;;13.35;7.82;;;;;;;12.83;81.05;101683.03;4829726;29;20030;-85
2023/05/23 04:53:17;;;;;;;12.93;8.15;;;;;;;12.83;81.00;101677.63;4837450;29;20045;-84
2023/05/23 04:55:42;;;;;;;14.95;8.30;;;;;;;12.88;81.17;101688.69;4840128;29;20037;-85
2023/05/23 04:58:08;;;;;;;14.65;8.10;;;;;;;12.93;80.22;101683.56;4833314;29;20398;-84
2023/05/23 05:00:34;;;;;;;16.60;7.85;;;;;;;12.96;80.68;101683.19;4836292;29;20029;-83
2023/05/23 05:03:00;;;;;;;13.35;8.23;;;;;;;12.98;80.38;101685.69;4834035;29;20191;-84
2023/05/23 05:05:26;;;;;;;15.23;7.97;;;;;;;13.03;79.50;101688.66;4824155;29;20125;-84
2023/05/23 05:07:51;;;;;;;12.18;7.60;;;;;;;12.97;79.77;101678.59;4834663;29;20033;-83
2023/05/23 05:10:19;;;;;;;12.70;7.55;;;;;;;12.96;79.03;101690.44;4835591;29;20116;-83
2023/05/23 05:12:57;;;;;;;13.73;7.50;;;;;;;12.96;79.37;101687.75;4830636;29;20078;-83
2023/05/23 05:15:28;;;;;;;11.43;7.10;;;;;;;13.07;78.64;101700.72;4837946;29;20030;-83
2023/05/23 05:17:55;;;;;;;13.02;7.43;;;;;;;12.98;78.70;101701.91;4834611;29;20038;-83
2023/05/23 05:20:22;;;;;;;15.05;7.85;;;;;;;12.86;79.29;101696.16;4838339;29;20472;-83
2023/05/23 05:22:59;;;;;;;14.77;7.15;;;;;;;12.90;79.67;101700.16;4832342;29;20482;-83
2023/05/23 05:25:35;;;;;;;11.88;7.45;;;;;;;12.87;79.27;101712.19;4815075;29;20030;-83
2023/05/23 05:28:12;;;;;;;13.35;7.85;;;;;;;12.83;79.43;101710.91;4827575;29;20074;-83
2023/05/23 05:30:47;;;;;;;13.77;7.80;;;;;;;12.81;79.03;101721.06;4839419;29;20029;-84
2023/05/23 05:33:27;;;;;;;13.30;7.30;;;;;;;12.78;78.63;101721.44;4842098;29;20060;-83
2023/05/23 05:35:52;;;;;;;13.23;7.30;;;;;;;12.79;78.52;101727.69;4835665;29;20049;-83
2023/05/23 05:38:17;;;;;;;15.18;7.63;;;;;;;12.75;78.91;101727.22;4839795;29;20044;-83
2023/05/23 05:40:43;;;;;;;13.20;7.28;;;;;;;12.81;78.81;101734.56;4839227;29;20038;-83
2023/05/23 05:43:09;;;;;;;13.15;6.57;;;;;;;12.79;79.27;101735.81;4827963;29;20046;-83
2023/05/23 05:45:34;;;;;;;14.27;7.88;;;;;;;12.78;79.76;101739.53;4837352;29;20030;-83
2023/05/23 05:48:05;;;;;;;15.93;7.53;;;;;;;12.68;79.06;101737.94;4836552;29;20032;-83
2023/05/23 05:50:30;;;;;;;15.30;6.85;;;;;;;12.72;79.19;101741.09;4839523;29;20168;-83
2023/05/23 05:52:56;;;;;;;13.18;7.00;;;;;;;12.63;78.50;101747.66;4842939;24;20066;-83
2023/05/23 05:55:21;;;;;;;15.02;7.43;;;;;;;12.57;78.38;101752.78;4839784;29;20383;-83
2023/05/23 05:57:59;;;;;;;16.20;7.32;;;;;;;12.48;78.53;101750.34;4838874;29;20066;-84
2023/05/23 06:00:44;;;;;;;18.42;7.60;;;;;;;12.43;78.91;101759.03;4836903;29;20033;-83
2023/05/23 06:03:57;;;;;;;15.48;7.38;;;;;;;12.35;79.39;101757.25;4833129;29;20641;-83
2023/05/23 06:06:22;;;;;;;12.63;6.53;;;;;;;12.31;79.48;101772.16;4835426;29;20033;-83
2023/05/23 06:09:12;;;;;;;16.83;7.32;;;;;;;12.26;80.01;101775.41;4836546;29;20454;-83
2023/05/23 06:11:43;;;;;;;13.35;6.78;;;;;;;12.21;79.61;101761.63;4837581;29;20033;-83
2023/05/23 06:14:18;;;;;;;14.40;7.18;;;;;;;12.13;80.17;101764.44;4889307;24;20721;-83
2023/05/23 06:17:22;;;;;;;12.05;6.75;;;;;;;12.06;79.93;101776.97;4838295;29;20038;-82
2023/05/23 06:19:57;;;;;;;11.93;6.20;;;;;;;11.89;80.78;101773.56;5003948;24;20503;-83
2023/05/23 06:22:23;;;;;;;12.93;7.53;;;;;;;11.90;80.69;101778.78;4830030;29;20046;-82
2023/05/23 06:28:07;;;;;;;13.13;6.28;;;;;;;11.89;80.53;101787.06;5033265;24;20140;-83
2023/05/23 06:31:17;;;;;;;15.95;6.95;;;;;;;11.91;80.22;101788.56;4831702;29;20042;-83
2023/05/23 06:33:44;;;;;;;12.43;6.03;;;;;;;11.94;80.49;101787.34;4830135;29;20494;-83
2023/05/23 06:36:12;;;;;;;11.15;6.30;;;;;;;11.97;79.94;101792.38;4831892;29;20048;-83
2023/05/23 06:42:01;;;;;;;14.13;6.13;;;;;;;11.98;80.09;101800.34;5051504;24;20130;-80
2023/05/23 06:44:32;;;;;;;11.27;6.15;;;;;;;12.03;80.24;101804.31;4834085;29;20105;-89
2023/05/23 06:47:00;;;;;;;14.95;6.22;;;;;;;11.93;79.82;101805.41;4835121;29;20034;-89
2023/05/23 06:49:26;;;;;;;13.18;6.43;;;;;;;11.80;80.14;101811.41;4834488;29;20081;-90
2023/05/23 06:52:04;;;;;;;11.93;5.88;;;;;;;11.80;80.34;101807.88;4833880;29;20360;-92
2023/05/23 07:00:26;;;;;;;17.27;6.43;;;;;;;11.83;79.82;101823.69;4883793;24;20069;-92
2023/05/23 07:03:02;;;;;;;12.60;6.00;;;;;;;11.74;80.22;101830.19;4969739;24;20058;-93
2023/05/23 07:05:27;;;;;;;11.07;6.03;;;;;;;11.72;80.48;101833.06;4996824;24;20125;-92
2023/05/23 07:08:01;;;;;;;11.23;5.63;;;;;;;11.68;80.24;101837.97;4838453;29;20040;-91
2023/05/23 07:10:26;;;;;;;12.93;5.70;;;;;;;11.70;79.59;101840.50;4843005;29;20130;-91
2023/05/23 07:12:52;;;;;;;15.05;5.75;;;;;;;11.55;79.95;101835.03;4855463;24;20063;-90
2023/05/23 07:15:17;;;;;;;17.45;5.85;;;;;;;11.68;79.70;101840.66;4839522;29;20053;-89
2023/05/23 07:18:04;;;;;;;14.93;5.43;;;;;;;11.68;79.52;101837.97;4840414;29;20022;-90
2023/05/23 07:20:31;;;;;;;9.73;4.97;;;;;;;11.70;79.27;101845.03;4851535;29;20032;-91
2023/05/23 07:23:07;;;;;;;14.93;5.07;;;;;;;11.79;78.97;101850.19;4819021;29;20034;-89
2023/05/23 07:25:32;;;;;;;14.25;5.20;;;;;;;11.79;78.47;101850.19;4833157;29;20434;-89
2023/05/23 07:28:04;;;;;;;10.63;4.90;;;;;;;11.79;77.48;101846.66;4832985;29;20496;-88
2023/05/23 07:30:41;;;;;;;10.90;5.13;;;;;;;11.80;77.06;101856.44;4834026;29;20036;-86
2023/05/23 07:33:21;;;;;;;10.23;4.78;;;;;;;11.80;76.56;101857.28;4840932;29;20033;-89
2023/05/23 07:36:05;;;;;;;13.93;4.93;;;;;;;11.96;75.95;101860.84;4838382;29;20038;-90
2023/05/23 07:38:37;;;;;;;9.35;4.43;;;;;;;12.08;75.87;101847.81;4842129;29;20053;-89
2023/05/23 07:41:02;;;;;;;10.27;4.45;;;;;;;12.24;75.30;101858.44;4843632;29;20026;-92
2023/05/23 07:43:27;;;;;;;9.43;4.60;;;;;;;12.32;75.36;101864.81;4853528;29;20070;-89
2023/05/23 07:46:00;;;;;;;14.70;5.00;;;;;;;12.34;75.08;101870.88;4853347;29;20051;-91
2023/05/23 07:48:37;;;;;;;10.00;5.05;;;;;;;12.03;75.24;101866.41;4854537;29;20345;-93
2023/05/23 07:51:03;;;;;;;18.65;5.45;;;;;;;11.93;75.74;101872.00;4847672;29;20056;-93
2023/05/23 07:54:00;;;;;;;14.07;5.78;;;;;;;11.70;76.39;101869.31;4830088;29;20479;-90
2023/05/23 07:56:29;;;;;;;13.02;6.60;;;;;;;11.70;76.64;101874.72;4844159;29;20022;-90
2023/05/23 07:59:07;;;;;;;17.65;5.75;;;;;;;11.73;76.80;101877.91;4831141;29;20045;-91
2023/05/23 08:01:36;;;;;;;15.90;6.20;;;;;;;11.83;76.11;101892.00;4835970;29;20022;-90
2023/05/23 08:04:22;;;;;;;14.45;6.05;;;;;;;11.78;75.73;101886.28;4837650;29;20486;-85
2023/05/23 08:06:48;;;;;;;10.90;6.03;;;;;;;11.72;76.27;101888.84;4821278;29;20061;-89
2023/05/23 08:09:26;;;;;;;12.27;5.93;;;;;;;11.62;76.60;101892.66;4833274;29;20458;-89
2023/05/23 08:15:07;;;;;;;11.60;5.80;;;;;;;11.65;75.63;101918.41;4800940;29;20062;-90
2023/05/23 08:18:06;;;;;;;9.98;5.43;;;;;;;11.63;75.43;101925.84;4803932;29;20046;-92
2023/05/23 08:23:36;;;;;;;10.77;5.03;;;;;;;12.16;72.67;101907.13;5014633;24;20123;-91
2023/05/23 08:26:02;;;;;;;10.02;5.05;;;;;;;12.52;70.95;101913.72;4835800;29;20378;-87
2023/05/23 08:29:01;;;;;;;11.35;5.20;;;;;;;12.88;69.83;101924.63;4825602;29;20042;-93
2023/05/23 08:31:33;;;;;;;10.63;4.90;;;;;;;13.42;68.11;101914.56;4841262;29;20033;-95
2023/05/23 08:36:41;;;;;;;12.75;5.65;;;;;;;14.85;63.26;101929.19;4854204;24;20077;-81
2023/05/23 08:39:07;;;;;;;12.48;5.07;;;;;;;14.83;61.33;101918.56;4825838;29;20030;-81
2023/05/23 08:41:33;;;;;;;13.40;5.15;;;;;;;14.85;61.69;101930.06;4829721;29;20029;-82
2023/05/23 08:43:58;;;;;;;13.90;5.50;;;;;;;14.50;61.78;101930.00;4817840;29;20360;-82
2023/05/23 08:46:24;;;;;;;9.38;4.72;;;;;;;14.37;62.91;101927.19;4814151;29;20108;-81
2023/05/23 08:48:53;;;;;;;9.38;4.85;;;;;;;14.27;62.58;101932.09;4836612;29;20038;-83
2023/05/23 08:51:20;;;;;;;10.95;4.47;;;;;;;14.51;61.18;101941.66;4824845;29;20118;-81
2023/05/23 08:53:46;;;;;;;10.88;5.25;;;;;;;14.49;60.97;101943.72;4836745;29;20196;-80
2023/05/23 08:56:11;;;;;;;12.30;5.05;;;;;;;14.22;61.32;101940.78;4813883;29;20584;-80
2023/05/23 08:58:37;;;;;;;8.88;4.22;;;;;;;14.30;61.34;101940.66;4829241;29;20037;-82
2023/05/23 09:01:03;;;;;;;11.95;4.90;;;;;;;14.29;62.78;101944.41;4812332;29;20064;-81
2023/05/23 09:03:28;;;;;;;10.90;4.53;;;;;;;14.18;63.04;101953.03;4829371;29;20038;-81
2023/05/23 09:05:54;;;;;;;8.40;3.63;;;;;;;14.19;62.96;101952.88;4829834;29;20026;-82
2023/05/23 09:08:20;;;;;;;8.90;3.67;;;;;;;14.14;63.10;101952.59;4834667;29;20685;-82
2023/05/23 09:10:48;;;;;;;10.65;4.15;;;;;;;14.05;62.97;101951.03;4829042;29;20040;-82
2023/05/23 09:13:14;;;;;;;7.25;3.53;;;;;;;14.09;64.03;101947.78;4814160;29;20163;-82
2023/05/23 09:16:00;;;;;;;11.82;4.38;;;;;;;13.98;64.23;101956.38;4828756;29;20257;-82
2023/05/23 09:18:26;;;;;;;14.32;4.22;;;;;;;14.31;64.07;101961.28;4833672;29;20073;-82
2023/05/23 09:20:51;;;;;;;9.70;4.15;;;;;;;14.47;62.07;101964.78;4822409;29;20062;-82
2023/05/23 09:23:17;;;;;;;9.27;3.70;;;;;;;14.48;60.48;101963.72;4813686;29;20033;-82
2023/05/23 09:25:46;;;;;;;11.77;4.07;;;;;;;14.37;60.76;101976.75;4807856;29;20049;-82
2023/05/23 09:28:11;;;;;;;12.95;3.58;;;;;;;14.37;59.95;101975.94;4840215;29;20043;-81
2023/05/23 09:30:37;;;;;;;9.45;3.97;;;;;;;14.50;58.94;101977.91;4830781;29;20030;-82
2023/05/23 09:33:02;;;;;;;9.18;3.50;;;;;;;14.73;58.84;101975.03;4800717;29;20361;-82
2023/05/23 09:35:29;;;;;;;11.50;3.45;;;;;;;14.91;58.07;101969.09;4833595;29;20052;-82
2023/05/23 09:37:57;;;;;;;10.98;3.20;;;;;;;15.19;56.92;101973.63;4838995;29;20041;-82
2023/05/23 09:40:30;;;;;;;8.27;3.25;;;;;;;15.84;56.25;101986.84;4833615;29;20127;-82
2023/05/23 09:42:55;;;;;;;7.60;3.17;;;;;;;15.98;54.83;101981.47;4817483;29;20046;-82
2023/05/23 09:45:21;;;;;;;9.07;3.55;;;;;;;16.22;53.49;101982.78;4812169;29;20108;-81
2023/05/23 09:47:52;;;;;;;7.70;3.25;;;;;;;16.43;53.70;101979.03;4791371;29;20521;-81
2023/05/23 09:50:18;;;;;;;8.60;3.20;;;;;;;16.41;54.14;101983.84;4828414;29;20042;-81
2023/05/23 09:52:43;;;;;;;9.95;3.30;;;;;;;16.12;53.53;101987.78;4830712;29;20159;-82
2023/05/23 09:55:09;;;;;;;8.82;3.08;;;;;;;15.68;54.73;101987.22;4843708;29;20482;-82
2023/05/23 09:57:36;;;;;;;10.52;3.38;;;;;;;15.61;55.40;101993.44;4832640;29;20481;-82
2023/05/23 10:00:05;;;;;;;10.63;3.55;;;;;;;15.42;55.95;101988.78;4819870;29;20034;-82
2023/05/23 10:03:12;;;;;;;15.10;4.72;;;;;;;15.11;56.97;101996.31;4832652;29;20092;-81
2023/05/23 10:05:45;;;;;;;11.32;3.75;;;;;;;15.22;56.37;101996.81;4835408;29;20034;-81
2023/05/23 10:08:17;;;;;;;13.40;3.53;;;;;;;15.38;56.16;101995.63;4826916;29;20052;-81
2023/05/23 10:11:18;;;;;;;10.65;3.70;;;;;;;15.49;55.73;101989.66;4826069;29;20034;-81
2023/05/23 10:13:48;;;;;;;12.48;3.58;;;;;;;15.93;54.53;101982.09;4835895;29;20034;-83
2023/05/23 10:16:22;;;;;;;14.02;4.20;;;;;;;15.94;54.07;101991.06;4843350;29;20025;-83
2023/05/23 10:18:51;;;;;;;13.15;3.53;;;;;;;15.95;53.79;101998.19;4835838;29;20037;-83
2023/05/23 10:21:30;;;;;;;15.30;3.85;;;;;;;16.26;53.45;101999.50;4818725;29;20393;-83
2023/05/23 10:23:58;;;;;;;11.00;3.20;;;;;;;17.23;50.25;101997.16;4808193;29;20509;-83
2023/05/23 10:26:23;;;;;;;15.23;3.35;;;;;;;18.75;46.79;101994.00;4822188;29;20611;-82
2023/05/23 10:28:48;;;;;;;11.20;3.20;;;;;;;19.82;43.98;102008.38;4817780;29;20033;-81
2023/05/23 10:31:14;;;;;;;8.50;3.15;;;;;;;20.18;43.12;102008.53;4833084;29;20374;-82
2023/05/23 10:33:41;;;;;;;9.75;3.55;;;;;;;19.41;42.95;102001.75;4810772;29;20180;-82
2023/05/23 10:36:13;;;;;;;11.63;3.63;;;;;;;18.83;44.14;101996.44;4796938;29;20137;-82
2023/05/23 10:38:49;;;;;;;16.50;3.92;;;;;;;18.38;46.04;102004.78;4810736;29;20034;-82
2023/05/23 10:41:35;;;;;;;8.13;3.28;;;;;;;18.25;46.11;101997.56;4809210;29;20058;-82
2023/05/23 10:44:29;;;;;;;10.20;3.50;;;;;;;18.90;43.04;102008.13;4811362;29;20117;-83
2023/05/23 10:47:01;;;;;;;7.57;2.85;;;;;;;19.91;40.30;102006.19;4793756;29;20118;-83
2023/05/23 10:49:53;;;;;;;6.65;2.72;;;;;;;21.20;39.19;101998.38;4818223;29;20459;-83
2023/05/23 10:52:20;;;;;;;8.98;2.88;;;;;;;21.57;37.00;102011.75;4813113;29;20101;-82
2023/05/23 10:54:52;;;;;;;10.43;3.25;;;;;;;20.79;37.77;102005.69;4830439;29;20072;-83
2023/05/23 10:57:19;;;;;;;8.88;3.03;;;;;;;20.23;39.79;101998.56;4915133;24;20499;-82
2023/05/23 10:59:45;;;;;;;10.43;3.50;;;;;;;19.46;42.57;102000.00;4837262;29;20056;-82
2023/05/23 11:02:17;;;;;;;9.90;3.30;;;;;;;20.29;43.26;102002.28;4822463;29;20038;-82
2023/05/23 11:04:45;;;;;;;12.82;3.72;;;;;;;20.66;40.27;101993.84;4829864;29;20085;-83
2023/05/23 11:07:39;;;;;;;9.93;3.17;;;;;;;20.22;40.40;102001.53;4835710;29;20041;-82
2023/05/23 11:10:08;;;;;;;8.32;2.83;;;;;;;19.93;40.54;101998.59;4800743;29;20045;-82
2023/05/23 11:12:41;;;;;;;9.43;3.28;;;;;;;20.43;40.14;101994.66;4826681;29;20481;-83
2023/05/23 11:15:19;;;;;;;7.47;3.13;;;;;;;21.11;37.44;101994.38;4828479;29;20037;-83
2023/05/23 11:17:56;;;;;;;8.35;3.15;;;;;;;21.95;35.87;101991.16;4835540;29;20105;-83
2023/05/23 11:20:27;;;;;;;8.98;3.00;;;;;;;22.91;34.06;101991.34;4831810;29;20046;-82
2023/05/23 11:22:54;;;;;;;9.73;3.25;;;;;;;22.81;33.65;101988.47;4807602;29;20041;-83
2023/05/23 11:25:19;;;;;;;7.63;3.03;;;;;;;22.77;33.51;101990.88;4833601;29;20534;-82
2023/05/23 11:27:45;;;;;;;8.85;3.17;;;;;;;22.39;32.82;101993.28;4832137;29;20036;-83
2023/05/23 11:30:16;;;;;;;6.22;3.20;;;;;;;22.89;32.19;101992.69;4835563;29;20149;-81
2023/05/23 11:32:42;;;;;;;8.25;2.72;;;;;;;23.73;31.61;101999.81;4824763;29;20046;-82
2023/05/23 11:35:10;;;;;;;8.80;3.40;;;;;;;23.92;32.23;101999.47;4830639;29;20034;-82
2023/05/23 11:37:39;;;;;;;9.73;3.00;;;;;;;23.29;32.46;101997.13;4824323;29;20041;-82
2023/05/23 11:40:30;;;;;;;10.05;3.15;;;;;;;22.49;33.86;101994.56;4831357;29;20022;-83
2023/05/23 11:42:56;;;;;;;9.23;3.20;;;;;;;21.88;34.56;101998.72;4826306;24;20082;-83
2023/05/23 11:45:22;;;;;;;11.90;3.50;;;;;;;21.42;35.94;101997.75;4826797;29;20042;-83
2023/05/23 11:48:10;;;;;;;10.25;3.50;;;;;;;21.85;35.89;101993.72;4954882;24;20085;-82
2023/05/23 11:54:03;;;;;;;7.00;3.28;;;;;;;23.89;32.36;102008.22;4828366;29;20434;-83
2023/05/23 11:56:29;;;;;;;11.05;3.90;;;;;;;24.02;32.70;102005.09;4838057;29;20502;-83
2023/05/23 11:58:57;;;;;;;8.07;2.97;;;;;;;24.58;30.76;102006.66;4799773;29;20040;-82
2023/05/23 12:01:27;;;;;;;12.02;3.58;;;;;;;24.56;30.60;102014.38;4827257;29;20034;-83
2023/05/23 12:03:56;;;;;;;9.13;3.10;;;;;;;23.79;31.11;102008.94;4821796;29;20041;-83
2023/05/23 12:06:23;;;;;;;11.27;3.70;;;;;;;23.21;32.10;102012.09;4830103;29;20038;-83